Time;durP1;ratioP1;P1;durP2;ratioP2;P2;SDS_P1;SDS_P2;PMS_P1;PMS_P2;Temp;Humidity;BMP_temperature;BMP_pressure;BME280_temperature;BME280_humidity;BME280_pressure;Samples;Min_cycle;Max_cycle;Signal;HPM_P1;HPM_P2
2021/11/07 00:06:33;;;;;;;36.40;27.60;;;256.10;2252.80;;;;;;4825560;29;20113;-93
2021/11/07 00:11:44;;;;;;;41.53;29.27;;;256.10;2252.80;;;;;;4825838;29;20487;-90
2021/11/07 00:14:12;;;;;;;39.70;28.23;;;256.10;2252.80;;;;;;4824243;29;20030;-94
2021/11/07 00:16:40;;;;;;;38.60;27.77;;;256.10;2252.80;;;;;;4825385;29;20022;-93
2021/11/07 00:21:43;;;;;;;44.00;29.45;;;256.20;2252.80;;;;;;4825504;29;20034;-90
2021/11/07 00:24:13;;;;;;;40.85;29.38;;;256.20;2252.80;;;;;;4824195;29;20030;-90
2021/11/07 00:29:16;;;;;;;37.28;28.13;;;256.20;2252.80;;;;;;4825383;29;20050;-94
2021/11/07 00:31:49;;;;;;;36.17;27.58;;;256.20;2252.80;;;;;;4824162;29;20042;-92
2021/11/07 00:36:59;;;;;;;35.25;26.17;;;256.20;2252.80;;;;;;4825405;29;20117;-92
2021/11/07 00:42:04;;;;;;;36.55;26.88;;;256.10;2252.80;;;;;;4824821;29;20031;-92
2021/11/07 00:47:43;;;;;;;37.00;27.60;;;256.20;2252.80;;;;;;4825294;29;20037;-92
2021/11/07 00:49:51;;;;;;;35.00;26.95;;;256.10;2252.80;;;;;;4820093;29;20171;-93
2021/11/07 00:55:01;;;;;;;38.00;28.50;;;256.20;2252.80;;;;;;4824690;29;20042;-92
2021/11/07 00:57:40;;;;;;;35.97;27.20;;;256.20;2252.80;;;;;;4824049;29;20034;-91
2021/11/07 01:00:17;;;;;;;35.40;26.02;;;256.20;2252.80;;;;;;4823934;29;20030;-90
2021/11/07 01:02:46;;;;;;;34.35;25.95;;;256.20;2252.80;;;;;;4823870;29;20038;-91
2021/11/07 01:05:22;;;;;;;35.95;25.35;;;256.20;2252.80;;;;;;4823898;29;20126;-90
2021/11/07 01:07:48;;;;;;;33.13;24.83;;;256.20;2252.80;;;;;;4823847;29;20045;-91
2021/11/07 01:10:14;;;;;;;32.38;25.75;;;256.10;2252.80;;;;;;4823707;29;20041;-90
2021/11/07 01:12:40;;;;;;;37.45;27.75;;;256.10;2252.80;;;;;;4826322;29;20031;-93
2021/11/07 01:15:07;;;;;;;36.25;27.75;;;256.20;2252.80;;;;;;4827107;29;20488;-90
2021/11/07 01:17:33;;;;;;;36.00;28.52;;;256.20;2252.80;;;;;;4827117;29;20038;-91
2021/11/07 01:19:59;;;;;;;37.70;29.50;;;256.10;2252.80;;;;;;4826908;29;20162;-91
2021/11/07 01:25:15;;;;;;;45.22;31.80;;;256.00;2252.80;;;;;;4818851;29;20495;-93
2021/11/07 01:27:43;;;;;;;43.38;31.02;;;231.30;2252.80;;;;;;4826809;29;20039;-91
2021/11/07 01:30:16;;;;;;;39.42;30.02;;;231.30;2252.80;;;;;;4826732;29;20129;-92
2021/11/07 01:32:49;;;;;;;45.50;33.08;;;231.30;2252.80;;;;;;4826922;29;20121;-93
2021/11/07 01:38:13;;;;;;;49.22;36.25;;;231.30;2252.80;;;;;;4794745;29;20045;-93
2021/11/07 01:40:45;;;;;;;49.53;36.72;;;231.20;2252.80;;;;;;4826710;29;20450;-90
2021/11/07 01:43:12;;;;;;;46.38;33.97;;;231.20;2252.80;;;;;;4827707;29;20018;-91
2021/11/07 01:45:44;;;;;;;39.85;31.63;;;231.20;2252.80;;;;;;4826547;29;20041;-91
2021/11/07 01:48:16;;;;;;;44.30;32.33;;;231.20;2252.80;;;;;;4827727;29;20038;-91
2021/11/07 01:50:46;;;;;;;40.58;30.48;;;231.30;2252.80;;;;;;4826267;29;20559;-91
2021/11/07 01:53:25;;;;;;;39.35;30.08;;;231.20;2252.80;;;;;;4826463;29;20130;-92
2021/11/07 01:55:52;;;;;;;42.28;32.85;;;231.20;2252.80;;;;;;4827542;29;20023;-92
2021/11/07 01:58:19;;;;;;;45.72;32.00;;;231.20;2252.80;;;;;;4826393;29;20484;-92
2021/11/07 02:00:46;;;;;;;44.17;33.55;;;231.20;2252.80;;;;;;4826563;29;20492;-88
2021/11/07 02:03:13;;;;;;;42.25;31.88;;;231.20;2252.80;;;;;;4826616;29;20030;-90
2021/11/07 02:05:39;;;;;;;55.55;35.17;;;231.20;2252.80;;;;;;4826385;29;20027;-87
2021/11/07 02:08:06;;;;;;;48.30;33.92;;;231.20;2252.80;;;;;;4826030;29;20035;-89
2021/11/07 02:10:33;;;;;;;49.17;35.50;;;231.20;2252.80;;;;;;4826123;29;20049;-89
2021/11/07 02:12:59;;;;;;;49.67;35.15;;;231.20;2252.80;;;;;;4826242;29;20030;-91
2021/11/07 02:15:26;;;;;;;46.83;34.67;;;231.20;2252.80;;;;;;4826014;29;20038;-89
2021/11/07 02:17:52;;;;;;;47.67;35.45;;;231.20;2252.80;;;;;;4826177;29;20023;-90
2021/11/07 02:20:40;;;;;;;46.17;34.75;;;231.20;2252.80;;;;;;4825919;29;20080;-89
2021/11/07 02:23:08;;;;;;;47.78;35.60;;;231.20;2252.80;;;;;;4825639;29;20030;-93
2021/11/07 02:25:37;;;;;;;46.17;35.53;;;231.20;2252.80;;;;;;4810796;29;20026;-91
2021/11/07 02:28:05;;;;;;;45.85;35.25;;;231.20;2252.80;;;;;;4810808;29;20037;-92
2021/11/07 02:30:32;;;;;;;45.00;33.45;;;231.20;2252.80;;;;;;4825976;29;20488;-92
2021/11/07 02:32:59;;;;;;;47.20;34.38;;;231.20;2252.80;;;;;;4825685;29;20033;-91
2021/11/07 02:35:26;;;;;;;45.17;33.70;;;231.20;2252.80;;;;;;4825916;29;20030;-92
2021/11/07 02:37:53;;;;;;;43.95;31.80;;;231.10;2252.80;;;;;;4825550;29;20457;-93
2021/11/07 02:40:20;;;;;;;46.20;32.42;;;231.20;2252.80;;;;;;4825691;29;20037;-93
2021/11/07 02:42:46;;;;;;;42.08;32.40;;;231.10;2252.80;;;;;;4825643;29;20030;-92
2021/11/07 02:45:16;;;;;;;41.38;30.85;;;231.10;2252.80;;;;;;4825830;29;20034;-93
2021/11/07 02:47:45;;;;;;;46.25;32.65;;;231.10;2252.80;;;;;;4825763;29;20125;-91
2021/11/07 02:50:12;;;;;;;45.60;31.20;;;231.20;2252.80;;;;;;4825686;29;20117;-92
2021/11/07 02:52:39;;;;;;;46.70;31.83;;;231.20;2252.80;;;;;;4825737;29;20026;-92
2021/11/07 02:55:06;;;;;;;42.10;32.10;;;231.20;2252.80;;;;;;4825484;29;20030;-92
2021/11/07 02:57:32;;;;;;;41.95;31.48;;;231.10;2252.80;;;;;;4825420;29;20071;-92
2021/11/07 02:59:59;;;;;;;45.30;32.58;;;231.10;2252.80;;;;;;4825426;29;20037;-92
2021/11/07 03:02:27;;;;;;;42.63;32.92;;;231.10;2252.80;;;;;;4825425;29;20031;-90
2021/11/07 03:04:55;;;;;;;46.50;35.10;;;231.20;2252.80;;;;;;4825080;29;20389;-92
2021/11/07 03:07:21;;;;;;;45.30;33.72;;;231.10;2252.80;;;;;;4826019;29;20030;-92
2021/11/07 03:09:48;;;;;;;48.13;35.45;;;231.20;2252.80;;;;;;4825185;29;20057;-92
2021/11/07 03:12:15;;;;;;;47.95;34.47;;;231.20;2252.80;;;;;;4826132;29;20067;-92
2021/11/07 03:14:45;;;;;;;44.42;34.15;;;231.10;2252.80;;;;;;4825212;29;20030;-91
2021/11/07 03:17:17;;;;;;;54.20;38.70;;;231.00;2252.80;;;;;;4825226;29;20083;-91
2021/11/07 03:19:44;;;;;;;78.75;45.17;;;231.00;2252.80;;;;;;4825165;29;20503;-91
2021/11/07 03:22:13;;;;;;;57.72;38.22;;;231.00;2252.80;;;;;;4825007;29;20074;-91
2021/11/07 03:24:41;;;;;;;56.45;40.25;;;230.90;2252.80;;;;;;4826015;29;20034;-92
2021/11/07 03:27:15;;;;;;;56.85;40.13;;;231.00;2252.80;;;;;;4825204;29;20034;-92
2021/11/07 03:29:43;;;;;;;;;;;231.00;2252.80;;;;;;4825698;29;20027;-93
2021/11/07 03:32:22;;;;;;;49.33;35.63;;;231.00;2252.80;;;;;;4825118;29;20382;-92
2021/11/07 03:34:53;;;;;;;51.88;36.50;;;230.90;2252.80;;;;;;4824203;29;20026;-92
2021/11/07 03:37:26;;;;;;;53.35;36.90;;;230.90;2252.80;;;;;;4824907;29;20094;-91
2021/11/07 03:39:57;;;;;;;49.45;35.47;;;230.90;2252.80;;;;;;4824913;29;20027;-92
2021/11/07 03:42:24;;;;;;;59.75;38.17;;;230.90;2252.80;;;;;;4824769;29;20034;-90
2021/11/07 03:44:52;;;;;;;51.55;37.53;;;230.90;2252.80;;;;;;4824773;29;20035;-91
2021/11/07 03:47:18;;;;;;;49.22;36.03;;;230.80;2252.80;;;;;;4824755;29;20030;-92
2021/11/07 03:49:44;;;;;;;58.63;37.63;;;230.80;2252.80;;;;;;4824748;29;20041;-91
2021/11/07 03:52:11;;;;;;;46.28;33.10;;;230.70;2252.80;;;;;;4809315;29;20046;-93
2021/11/07 03:54:40;;;;;;;56.00;36.70;;;230.70;2252.80;;;;;;4824602;29;20023;-93
2021/11/07 03:57:07;;;;;;;47.85;35.05;;;230.70;2252.80;;;;;;4824636;29;20030;-92
2021/11/07 03:59:33;;;;;;;46.92;34.50;;;230.70;2252.80;;;;;;4824521;29;20058;-92
2021/11/07 04:02:01;;;;;;;45.22;33.75;;;230.70;2252.80;;;;;;4824693;29;20026;-91
2021/11/07 04:04:27;;;;;;;47.47;32.45;;;230.70;2252.80;;;;;;4824642;29;20440;-93
2021/11/07 04:06:52;;;;;;;48.38;34.75;;;230.70;2252.80;;;;;;4825815;29;20066;-91
2021/11/07 04:09:19;;;;;;;44.28;33.03;;;230.70;2252.80;;;;;;4824515;29;20027;-92
2021/11/07 04:11:45;;;;;;;46.22;33.17;;;230.70;2252.80;;;;;;4824557;29;20087;-92
2021/11/07 04:14:12;;;;;;;44.53;32.55;;;230.60;2252.80;;;;;;4824538;29;20125;-92
2021/11/07 04:16:39;;;;;;;49.60;34.95;;;230.60;2252.80;;;;;;4824434;29;20117;-91
2021/11/07 04:19:06;;;;;;;52.10;36.00;;;230.60;2252.80;;;;;;4824195;29;20050;-91
2021/11/07 04:21:32;;;;;;;49.03;35.47;;;230.50;2252.80;;;;;;4824372;29;20030;-92
2021/11/07 04:23:58;;;;;;;53.40;35.10;;;230.50;2252.80;;;;;;4824269;29;20038;-92
2021/11/07 04:26:25;;;;;;;46.10;33.72;;;230.50;2252.80;;;;;;4824349;29;20038;-92
2021/11/07 04:28:50;;;;;;;48.47;34.72;;;230.50;2252.80;;;;;;4824304;29;20033;-92
2021/11/07 04:31:17;;;;;;;59.42;38.88;;;230.50;2252.80;;;;;;4824021;29;20038;-93
2021/11/07 04:33:43;;;;;;;53.20;36.78;;;230.50;2252.80;;;;;;4824209;29;20209;-92
2021/11/07 04:36:10;;;;;;;81.80;45.53;;;230.50;2252.80;;;;;;4824124;29;20150;-90
2021/11/07 04:38:37;;;;;;;55.08;38.55;;;230.40;2252.80;;;;;;4824034;29;20037;-91
2021/11/07 04:41:05;;;;;;;61.15;38.00;;;230.40;2252.80;;;;;;4824160;29;20053;-91
2021/11/07 04:43:32;;;;;;;59.90;40.97;;;230.50;2252.80;;;;;;4823982;29;20031;-93
2021/11/07 04:45:58;;;;;;;73.90;46.85;;;230.50;2252.80;;;;;;4824649;29;20038;-91
2021/11/07 04:48:24;;;;;;;67.03;46.65;;;230.40;2252.80;;;;;;4812532;29;20038;-91
2021/11/07 04:50:50;;;;;;;62.22;43.47;;;230.40;2252.80;;;;;;4812378;29;20042;-91
2021/11/07 04:53:20;;;;;;;62.22;43.90;;;230.40;2252.80;;;;;;4827545;29;20079;-91
2021/11/07 04:55:49;;;;;;;53.90;38.80;;;230.50;2252.80;;;;;;4828304;29;20123;-92
2021/11/07 04:58:15;;;;;;;53.35;35.95;;;230.50;2252.80;;;;;;4827632;29;20410;-91
2021/11/07 05:00:41;;;;;;;48.15;36.40;;;230.60;2252.80;;;;;;4827560;29;20065;-92
2021/11/07 05:03:08;;;;;;;52.38;35.97;;;230.60;2252.80;;;;;;4827083;29;20038;-92
2021/11/07 05:05:36;;;;;;;49.53;33.60;;;230.60;2252.80;;;;;;4827228;29;20031;-91
2021/11/07 05:08:03;;;;;;;50.30;34.05;;;230.70;2252.80;;;;;;4827164;29;20130;-92
2021/11/07 05:10:29;;;;;;;55.47;36.50;;;230.60;2252.80;;;;;;4827133;29;20066;-93
2021/11/07 05:12:55;;;;;;;55.05;35.97;;;230.60;2252.80;;;;;;4827105;29;20095;-91
2021/11/07 05:15:21;;;;;;;55.05;35.33;;;230.70;2252.80;;;;;;4828082;29;20031;-93
2021/11/07 05:17:48;;;;;;;60.58;37.22;;;230.70;2252.80;;;;;;4827241;29;20039;-90
2021/11/07 05:20:14;;;;;;;56.45;36.83;;;230.70;2252.80;;;;;;4826846;29;20058;-90
2021/11/07 05:22:41;;;;;;;63.72;41.53;;;230.70;2252.80;;;;;;4827077;29;20042;-93
2021/11/07 05:25:08;;;;;;;61.35;38.72;;;230.70;2252.80;;;;;;4826869;29;20033;-93
2021/11/07 05:27:35;;;;;;;61.92;38.88;;;230.70;2252.80;;;;;;4826795;29;20037;-91
2021/11/07 05:30:04;;;;;;;67.80;39.88;;;230.70;2252.80;;;;;;4826630;29;20120;-93
2021/11/07 05:32:30;;;;;;;69.15;42.70;;;230.70;2252.80;;;;;;4827720;29;20054;-92
2021/11/07 05:34:56;;;;;;;67.35;40.40;;;230.60;2252.80;;;;;;4826896;29;20046;-91
2021/11/07 05:37:22;;;;;;;61.63;40.58;;;230.60;2252.80;;;;;;4826721;29;20038;-92
2021/11/07 05:39:49;;;;;;;59.97;37.97;;;230.50;2252.80;;;;;;4811788;29;20041;-92
2021/11/07 05:42:16;;;;;;;54.85;36.08;;;230.60;2252.80;;;;;;4826778;29;20476;-92
2021/11/07 05:44:42;;;;;;;54.65;35.33;;;230.60;2252.80;;;;;;4826776;29;20038;-92
2021/11/07 05:47:07;;;;;;;57.20;35.90;;;230.70;2252.80;;;;;;4826721;29;20086;-92
2021/11/07 05:49:33;;;;;;;51.88;34.35;;;230.70;2252.80;;;;;;4826511;29;20043;-93
2021/11/07 05:51:59;;;;;;;53.08;35.83;;;230.70;2252.80;;;;;;4826372;29;20062;-93
2021/11/07 05:54:26;;;;;;;49.33;35.00;;;230.70;2252.80;;;;;;4826455;29;20109;-93
2021/11/07 05:56:52;;;;;;;50.65;34.28;;;230.70;2252.80;;;;;;4826459;29;20128;-92
2021/11/07 05:59:18;;;;;;;47.58;34.00;;;230.70;2252.80;;;;;;4826810;29;20481;-91
2021/11/07 06:01:44;;;;;;;57.95;36.83;;;230.70;2252.80;;;;;;4827374;29;20039;-92
2021/11/07 06:04:09;;;;;;;52.38;35.20;;;230.70;2252.80;;;;;;4826138;29;20034;-92
2021/11/07 06:06:35;;;;;;;55.95;36.65;;;230.70;2252.80;;;;;;4826162;29;20034;-91
2021/11/07 06:09:02;;;;;;;59.75;37.22;;;230.70;2252.80;;;;;;4826234;29;20121;-93
2021/11/07 06:11:28;;;;;;;58.75;38.47;;;230.80;2252.80;;;;;;4826088;29;20480;-92
2021/11/07 06:13:55;;;;;;;62.70;41.85;;;230.80;2252.80;;;;;;4819312;29;20041;-91
2021/11/07 06:16:21;;;;;;;57.72;38.55;;;230.80;2252.80;;;;;;4808057;29;20043;-93
2021/11/07 06:18:48;;;;;;;61.88;38.70;;;230.90;2252.80;;;;;;4818552;24;20030;-89
2021/11/07 06:21:15;;;;;;;47.00;33.97;;;230.90;2252.80;;;;;;4809235;29;20043;-89
2021/11/07 08:27:43;;;;;;;36.78;26.40;;;256.00;2252.80;;;;;;4835582;24;20058;-87
2021/11/07 08:30:11;;;;;;;91.38;57.17;;;256.00;2252.80;;;;;;4800944;29;20063;-88
2021/11/07 08:32:37;;;;;;;68.50;46.45;;;256.00;2252.80;;;;;;4775331;29;20508;-88
2021/11/07 08:35:04;;;;;;;77.00;47.97;;;256.00;2252.80;;;;;;4772854;30;20036;-88
2021/11/07 08:40:39;;;;;;;37.53;26.20;;;256.00;2252.80;;;;;;4874324;24;20399;-89
2021/11/07 09:10:09;;;;;;;34.75;27.30;;;256.70;2252.80;;;;;;4789056;30;20035;-88
2021/11/07 09:12:35;;;;;;;39.92;28.13;;;256.70;2252.80;;;;;;4772738;30;20138;-90
2021/11/07 09:15:01;;;;;;;45.20;32.15;;;256.80;2252.80;;;;;;4772782;30;20069;-90
2021/11/07 09:17:29;;;;;;;39.35;27.42;;;256.70;2252.80;;;;;;4772383;30;20035;-91
2021/11/07 09:19:56;;;;;;;36.47;27.65;;;256.80;2252.80;;;;;;4772669;30;20036;-89
2021/11/07 09:22:46;;;;;;;42.00;30.70;;;256.70;2252.80;;;;;;4772493;30;20023;-91
2021/11/07 09:25:18;;;;;;;36.88;28.55;;;256.80;2252.80;;;;;;4770795;30;20032;-89
2021/11/07 09:27:48;;;;;;;34.03;25.63;;;256.80;2252.80;;;;;;4769886;30;20039;-90
2021/11/07 09:30:29;;;;;;;38.53;28.92;;;256.70;2252.80;;;;;;4766462;30;20097;-90
2021/11/07 09:35:31;;;;;;;45.28;31.30;;;256.70;2252.80;;;;;;4791231;30;20027;-83
2021/11/07 09:40:26;;;;;;;40.95;31.50;;;256.70;2252.80;;;;;;4773210;30;20374;-85
2021/11/07 09:48:23;;;;;;;48.08;33.88;;;256.80;2252.80;;;;;;4791097;30;20027;-84
2021/11/07 09:50:49;;;;;;;51.35;36.78;;;256.80;2252.80;;;;;;4775023;30;20035;-79
2021/11/07 09:53:18;;;;;;;55.38;40.67;;;256.80;2252.80;;;;;;4774764;30;20067;-83
2021/11/07 09:55:46;;;;;;;61.05;43.13;;;256.70;2252.80;;;;;;4775377;30;20501;-84
2021/11/07 09:58:13;;;;;;;55.75;40.72;;;256.70;2252.80;;;;;;4784149;29;20042;-81
2021/11/07 10:00:47;;;;;;;51.90;36.65;;;256.70;2252.80;;;;;;4792797;29;20058;-88
2021/11/07 10:03:14;;;;;;;56.67;39.90;;;256.70;2252.80;;;;;;4793020;29;20035;-83
2021/11/07 10:05:43;;;;;;;57.85;41.50;;;256.60;2252.80;;;;;;4780477;30;20045;-82
2021/11/07 10:08:11;;;;;;;52.90;38.47;;;256.60;2252.80;;;;;;4774718;30;20485;-85
2021/11/07 10:10:44;;;;;;;51.95;36.38;;;256.60;2252.80;;;;;;4790989;30;20054;-84
2021/11/07 10:13:19;;;;;;;48.72;37.45;;;256.70;2252.80;;;;;;4775284;30;20043;-84
2021/11/07 10:15:48;;;;;;;55.53;41.17;;;256.80;2252.80;;;;;;4791057;30;20192;-83
2021/11/07 10:18:43;;;;;;;52.90;40.05;;;256.70;2252.80;;;;;;4775081;30;20074;-82
2021/11/07 10:21:21;;;;;;;53.55;41.33;;;256.80;2252.80;;;;;;4775137;30;20036;-83
2021/11/07 10:24:05;;;;;;;58.78;38.78;;;256.80;2252.80;;;;;;4775071;30;20066;-83
2021/11/07 10:26:39;;;;;;;86.75;50.38;;;256.60;2252.80;;;;;;4774949;30;20487;-88
2021/11/07 10:29:08;;;;;;;53.65;37.83;;;256.60;2252.80;;;;;;4774739;30;20035;-83
2021/11/07 10:46:19;;;;;;;57.47;40.83;;;256.60;2252.80;;;;;;4790665;29;20059;-84
2021/11/07 10:52:07;;;;;;;45.45;34.17;;;256.70;2252.80;;;;;;4790498;30;20046;-90
2021/11/07 10:54:41;;;;;;;48.28;36.55;;;256.80;2252.80;;;;;;4774282;30;20027;-84
2021/11/07 10:57:14;;;;;;;52.13;38.47;;;256.70;2252.80;;;;;;4774419;30;20054;-85
2021/11/07 10:59:41;;;;;;;53.88;41.33;;;256.70;2252.80;;;;;;4790351;30;20023;-82
2021/11/07 11:02:34;;;;;;;47.47;35.70;;;256.80;2252.80;;;;;;4790311;30;20106;-86
2021/11/07 11:05:08;;;;;;;46.53;36.92;;;256.80;2252.80;;;;;;4787772;29;20045;-88
2021/11/07 11:07:57;;;;;;;49.80;35.63;;;256.80;2252.80;;;;;;4774485;30;20038;-87
2021/11/07 11:10:31;;;;;;;49.25;36.83;;;256.80;2252.80;;;;;;4789756;30;20122;-86
2021/11/07 11:13:11;;;;;;;52.10;36.42;;;256.80;2252.80;;;;;;4789941;30;20027;-85
2021/11/07 11:15:50;;;;;;;49.03;36.05;;;256.70;2252.80;;;;;;4797170;29;20027;-85
2021/11/07 11:21:31;;;;;;;47.08;34.08;;;256.60;2252.80;;;;;;4752475;30;20036;-85
2021/11/07 11:34:43;;;;;;;41.17;32.67;;;256.30;2252.80;;;;;;4753072;30;20038;-82
2021/11/07 11:40:07;;;;;;;45.45;34.65;;;256.40;2252.80;;;;;;4770048;30;20101;-81
2021/11/07 11:42:55;;;;;;;47.13;36.97;;;256.50;2252.80;;;;;;4754562;30;20043;-81
2021/11/07 11:45:36;;;;;;;46.40;34.60;;;256.50;2252.80;;;;;;4769151;30;20032;-79
2021/11/07 12:12:00;;;;;;;47.13;37.13;;;256.50;2252.80;;;;;;4789482;30;20237;-82
2021/11/07 12:14:48;;;;;;;46.72;35.40;;;256.50;2252.80;;;;;;4773038;30;20034;-82
2021/11/07 12:17:26;;;;;;;47.25;37.08;;;256.40;2252.80;;;;;;4789135;30;20032;-82
2021/11/07 12:19:52;;;;;;;44.90;35.00;;;256.50;2252.80;;;;;;4789046;30;20039;-81
2021/11/07 12:25:29;;;;;;;44.75;35.42;;;256.40;2252.80;;;;;;4790905;30;20422;-86
2021/11/07 12:34:23;;;;;;;52.45;38.22;;;256.40;2252.80;;;;;;4790302;30;20091;-82
2021/11/07 12:40:33;;;;;;;54.85;39.85;;;256.40;2252.80;;;;;;4773248;30;20032;-81
2021/11/07 12:42:24;;;;;;;61.90;44.85;;;256.40;2252.80;;;;;;4788384;30;20414;-80
2021/11/07 12:44:53;;;;;;;69.88;49.22;;;256.40;2252.80;;;;;;4772358;30;20031;-83
2021/11/07 12:47:25;;;;;;;61.58;45.35;;;256.50;2252.80;;;;;;4788482;30;20023;-83
2021/11/07 12:50:01;;;;;;;62.22;44.88;;;256.50;2252.80;;;;;;4772464;30;20040;-85
2021/11/07 12:52:28;;;;;;;59.60;43.90;;;256.50;2252.80;;;;;;4772275;30;20558;-81
2021/11/07 12:54:54;;;;;;;58.90;42.40;;;256.50;2252.80;;;;;;4788479;30;20037;-81
2021/11/07 12:57:22;;;;;;;55.78;41.03;;;256.50;2252.80;;;;;;4788620;30;20051;-80
2021/11/07 12:59:52;;;;;;;61.40;43.35;;;256.40;2252.80;;;;;;4772212;30;20067;-80
2021/11/07 13:02:18;;;;;;;54.65;42.67;;;256.40;2252.80;;;;;;4772799;30;20075;-80
2021/11/07 13:05:18;;;;;;;60.30;42.55;;;256.40;2252.80;;;;;;4788336;30;20035;-80
2021/11/07 13:10:25;;;;;;;57.80;43.80;;;256.40;2252.80;;;;;;4794329;30;20161;-84
2021/11/07 13:13:01;;;;;;;55.60;43.20;;;256.30;2252.80;;;;;;4777641;30;20401;-79
2021/11/07 13:15:52;;;;;;;73.95;53.97;;;256.30;2252.80;;;;;;4793620;30;20035;-80
2021/11/07 13:26:29;;;;;;;62.55;43.63;;;256.40;2252.80;;;;;;4791933;30;20046;-80
2021/11/07 13:29:05;;;;;;;70.57;50.67;;;256.30;2252.80;;;;;;4775450;30;20122;-89
2021/11/07 13:34:38;;;;;;;77.60;54.10;;;256.10;2252.80;;;;;;4795912;30;20067;-79
2021/11/07 13:37:23;;;;;;;115.45;51.55;;;256.00;2252.80;;;;;;4795144;29;20093;-80
2021/11/07 13:39:49;;;;;;;87.38;58.13;;;231.30;2252.80;;;;;;4767182;30;20051;-84
2021/11/07 13:42:16;;;;;;;80.13;50.78;;;256.00;2252.80;;;;;;4775755;30;20031;-79
2021/11/07 13:44:46;;;;;;;75.70;52.28;;;256.10;2252.80;;;;;;4775065;30;20036;-79
2021/11/07 13:47:12;;;;;;;75.30;53.10;;;256.00;2252.80;;;;;;4791289;30;20031;-81
2021/11/07 13:49:55;;;;;;;79.13;54.95;;;256.10;2252.80;;;;;;4775019;30;20027;-86
2021/11/07 13:52:22;;;;;;;;;;;256.00;2252.80;;;;;;4791287;30;20086;-79
2021/11/07 13:54:48;;;;;;;79.00;50.72;;;256.10;2252.80;;;;;;4790861;30;19941;-87
2021/11/07 13:57:14;;;;;;;86.72;56.38;;;256.10;2252.80;;;;;;4774941;30;20036;-80
2021/11/07 13:59:43;;;;;;;73.65;48.85;;;256.10;2252.80;;;;;;4774921;30;20027;-79
2021/11/07 14:02:17;;;;;;;75.10;51.80;;;231.30;2252.80;;;;;;4775422;30;20036;-79
2021/11/07 14:04:50;;;;;;;74.50;50.25;;;256.00;2252.80;;;;;;4790906;30;20169;-79
2021/11/07 14:07:18;;;;;;;73.45;48.63;;;256.10;2252.80;;;;;;4774691;30;20052;-81
2021/11/07 14:10:06;;;;;;;83.47;56.80;;;256.10;2252.80;;;;;;4790805;30;20046;-79
2021/11/07 14:13:11;;;;;;;87.97;55.28;;;256.00;2252.80;;;;;;4774637;30;20501;-79
2021/11/07 14:15:42;;;;;;;85.28;54.63;;;231.30;2252.80;;;;;;4776769;30;20032;-79
2021/11/07 14:18:22;;;;;;;80.60;52.60;;;231.30;2252.80;;;;;;4791669;29;20502;-80
2021/11/07 14:20:55;;;;;;;73.68;49.72;;;231.30;2252.80;;;;;;4793816;30;20089;-80
2021/11/07 14:24:19;;;;;;;82.68;52.97;;;231.20;2252.80;;;;;;4791582;30;20028;-80
2021/11/07 14:26:59;;;;;;;79.97;51.42;;;231.30;2252.80;;;;;;4792500;30;20042;-79
2021/11/07 14:29:40;;;;;;;71.85;47.72;;;231.20;2252.80;;;;;;4774720;30;20107;-88
2021/11/07 14:38:01;;;;;;;70.05;44.25;;;231.10;2252.80;;;;;;4786143;29;20035;-80
2021/11/07 14:40:31;;;;;;;66.80;43.30;;;231.10;2252.80;;;;;;4792580;29;20062;-81
2021/11/07 14:43:13;;;;;;;73.50;46.85;;;231.10;2252.80;;;;;;4775783;30;20027;-79
2021/11/07 14:51:31;;;;;;;73.57;46.70;;;231.20;2252.80;;;;;;4790488;30;20074;-81
2021/11/07 15:02:20;;;;;;;68.07;45.13;;;231.20;2252.80;;;;;;4790408;30;20618;-80
2021/11/07 15:05:32;;;;;;;70.95;45.58;;;231.20;2252.80;;;;;;4789923;30;20031;-80
2021/11/07 15:07:40;;;;;;;69.57;44.25;;;231.30;2252.80;;;;;;4786971;30;20511;-79
2021/11/07 15:11:03;;;;;;;75.68;47.90;;;231.30;2252.80;;;;;;4773966;30;20028;-82
2021/11/07 15:13:24;;;;;;;67.93;45.45;;;231.30;2252.80;;;;;;4779882;30;20058;-82
2021/11/07 15:18:40;;;;;;;72.82;48.30;;;231.30;2252.80;;;;;;4789993;30;20390;-84
2021/11/07 15:21:21;;;;;;;80.65;50.65;;;231.30;2252.80;;;;;;4773711;30;20034;-83
2021/11/07 15:23:57;;;;;;;85.40;55.63;;;231.30;2252.80;;;;;;4773791;30;20118;-84
2021/11/07 15:26:36;;;;;;;82.93;51.20;;;231.30;2252.80;;;;;;4789955;30;20031;-85
2021/11/07 15:30:01;;;;;;;83.53;50.58;;;231.30;2252.80;;;;;;4773984;30;20385;-88
2021/11/07 15:32:37;;;;;;;86.75;53.47;;;231.30;2252.80;;;;;;4788698;30;20489;-83
2021/11/07 15:35:29;;;;;;;78.90;49.35;;;231.30;2252.80;;;;;;4773458;30;20084;-81
2021/11/07 15:37:56;;;;;;;76.85;47.97;;;231.30;2252.80;;;;;;4802817;29;20067;-90
2021/11/07 15:40:32;;;;;;;125.20;93.43;;;256.20;2252.80;;;;;;4788009;30;20173;-80
2021/11/07 15:42:58;;;;;;;106.22;68.65;;;231.20;2252.80;;;;;;4789376;30;20034;-80
2021/11/07 15:46:02;;;;;;;81.38;49.80;;;231.10;2252.80;;;;;;4777156;30;20031;-80
2021/11/07 15:49:21;;;;;;;81.72;45.95;;;231.10;2252.80;;;;;;4804881;29;20023;-82
2021/11/07 15:56:31;;;;;;;81.95;48.88;;;231.00;2252.80;;;;;;4807160;29;20516;-79
2021/11/07 16:31:02;;;;;;;190.63;97.20;;;231.00;2252.80;;;;;;4820643;24;20063;-86
2021/11/07 16:33:33;;;;;;;76.63;46.40;;;231.10;2252.80;;;;;;4789790;30;20043;-89
2021/11/07 16:41:47;;;;;;;73.97;46.33;;;231.10;2252.80;;;;;;4789669;30;20027;-89
2021/11/07 16:44:05;;;;;;;77.60;46.15;;;231.10;2252.80;;;;;;4789049;30;20039;-89
2021/11/07 16:46:36;;;;;;;73.45;45.03;;;231.20;2252.80;;;;;;4775867;30;20065;-80
2021/11/07 16:49:03;;;;;;;76.85;46.10;;;231.10;2252.80;;;;;;4775711;30;20153;-84
2021/11/07 16:51:48;;;;;;;78.75;47.63;;;231.10;2252.80;;;;;;4775731;30;20154;-83
2021/11/07 16:57:49;;;;;;;83.53;49.60;;;231.10;2252.80;;;;;;4803274;29;20039;-82
2021/11/07 17:04:56;;;;;;;100.00;49.00;;;230.90;2252.80;;;;;;4716134;30;20030;-80
2021/11/07 17:11:20;;;;;;;93.97;50.67;;;230.90;2252.80;;;;;;4626615;30;20163;-81
2021/11/07 17:34:13;;;;;;;96.88;51.70;;;230.90;2252.80;;;;;;4705591;30;20526;-82
2021/11/07 17:39:21;;;;;;;111.30;59.67;;;231.10;2252.80;;;;;;4700890;30;20073;-83
2021/11/07 17:50:03;;;;;;;115.95;63.05;;;231.10;2252.80;;;;;;4721481;30;20132;-82
2021/11/07 17:55:39;;;;;;;101.50;54.00;;;231.00;2252.80;;;;;;4726483;30;20044;-78
2021/11/07 17:58:41;;;;;;;104.38;53.70;;;230.90;2252.80;;;;;;4734226;30;20038;-78
2021/11/07 18:01:12;;;;;;;100.70;51.30;;;230.90;2252.80;;;;;;4714589;30;20057;-79
2021/11/07 18:03:44;;;;;;;93.97;49.25;;;230.90;2252.80;;;;;;4717998;30;20094;-79
2021/11/07 18:06:11;;;;;;;107.10;53.92;;;230.90;2252.80;;;;;;4718443;30;20036;-79
2021/11/07 18:08:40;;;;;;;107.13;52.72;;;231.00;2252.80;;;;;;4761415;30;20449;-79
2021/11/07 18:11:27;;;;;;;138.02;62.60;;;231.00;2252.80;;;;;;4798217;29;20040;-82
2021/11/07 18:13:57;;;;;;;134.20;61.80;;;231.00;2252.80;;;;;;4801914;30;20039;-82
2021/11/07 18:16:46;;;;;;;135.00;59.28;;;230.90;2252.80;;;;;;4801668;30;20034;-81
2021/11/07 18:19:22;;;;;;;153.10;64.45;;;230.90;2252.80;;;;;;4796796;29;20043;-79
2021/11/07 18:24:36;;;;;;;131.75;63.47;;;230.80;2252.80;;;;;;4807179;29;20058;-78
2021/11/07 18:27:09;;;;;;;125.65;60.30;;;230.80;2252.80;;;;;;4818720;29;20023;-79
2021/11/07 18:29:43;;;;;;;130.48;61.47;;;230.80;2252.80;;;;;;4817156;29;20031;-79
2021/11/07 18:32:09;;;;;;;;;;;230.90;2252.80;;;;;;4793013;29;20043;-81
2021/11/07 18:34:34;;;;;;;111.20;55.10;;;231.00;2252.80;;;;;;4807971;29;20341;-78
2021/11/07 18:37:00;;;;;;;118.95;57.05;;;231.00;2252.80;;;;;;4791630;29;20035;-81
2021/11/07 18:39:28;;;;;;;140.38;60.78;;;231.00;2252.80;;;;;;4791970;29;20027;-82
2021/11/07 18:41:54;;;;;;;141.57;58.78;;;230.90;2252.80;;;;;;4793636;29;20449;-79
2021/11/07 18:44:20;;;;;;;163.32;71.03;;;230.90;2252.80;;;;;;4793718;29;20027;-79
2021/11/07 18:47:01;;;;;;;160.25;72.88;;;230.90;2252.80;;;;;;4796369;29;20091;-81
2021/11/07 18:49:28;;;;;;;145.02;68.38;;;231.00;2252.80;;;;;;4807825;29;20113;-82
2021/11/07 18:51:54;;;;;;;139.52;69.97;;;231.00;2252.80;;;;;;4791866;29;20077;-83